sensor_id;sensor_type;location;lat;lon;timestamp;pressure;altitude;pressure_sealevel;temperature;humidity
43707;BME280;61348;53.392;-6.248;2022-08-21T00:01:50;100702.13;;;14.82;66.93
43707;BME280;61348;53.392;-6.248;2022-08-21T00:04:17;100702.97;;;14.86;66.90
43707;BME280;61348;53.392;-6.248;2022-08-21T00:06:50;100699.03;;;14.91;66.99
43707;BME280;61348;53.392;-6.248;2022-08-21T00:09:19;100700.34;;;14.97;66.77
43707;BME280;61348;53.392;-6.248;2022-08-21T00:11:46;100698.31;;;14.94;66.86
43707;BME280;61348;53.392;-6.248;2022-08-21T00:14:14;100703.06;;;14.93;67.05
43707;BME280;61348;53.392;-6.248;2022-08-21T00:16:41;100708.34;;;14.98;66.73
43707;BME280;61348;53.392;-6.248;2022-08-21T00:19:08;100704.44;;;15.03;66.50
43707;BME280;61348;53.392;-6.248;2022-08-21T00:21:35;100698.88;;;15.06;66.72
43707;BME280;61348;53.392;-6.248;2022-08-21T00:24:03;100708.88;;;15.07;66.58
43707;BME280;61348;53.392;-6.248;2022-08-21T00:26:30;100714.03;;;15.05;66.08
43707;BME280;61348;53.392;-6.248;2022-08-21T00:28:56;100709.94;;;14.99;66.03
43707;BME280;61348;53.392;-6.248;2022-08-21T00:31:24;100710.69;;;14.96;66.03
43707;BME280;61348;53.392;-6.248;2022-08-21T00:33:51;100715.91;;;14.98;66.08
43707;BME280;61348;53.392;-6.248;2022-08-21T00:36:26;100711.50;;;14.97;66.23
43707;BME280;61348;53.392;-6.248;2022-08-21T00:38:52;100712.25;;;14.94;66.10
43707;BME280;61348;53.392;-6.248;2022-08-21T00:41:19;100705.00;;;14.89;66.46
43707;BME280;61348;53.392;-6.248;2022-08-21T00:44:08;100709.34;;;14.87;66.44
43707;BME280;61348;53.392;-6.248;2022-08-21T00:46:38;100706.94;;;14.85;66.36
43707;BME280;61348;53.392;-6.248;2022-08-21T00:49:11;100706.19;;;14.88;66.33
43707;BME280;61348;53.392;-6.248;2022-08-21T00:52:00;100715.34;;;14.89;66.37
43707;BME280;61348;53.392;-6.248;2022-08-21T00:54:27;100701.34;;;14.85;66.53
43707;BME280;61348;53.392;-6.248;2022-08-21T00:56:59;100709.25;;;14.80;66.45
43707;BME280;61348;53.392;-6.248;2022-08-21T00:59:28;100705.66;;;14.79;66.36
43707;BME280;61348;53.392;-6.248;2022-08-21T01:01:58;100696.44;;;14.75;66.53
43707;BME280;61348;53.392;-6.248;2022-08-21T01:04:25;100707.09;;;14.70;66.85
43707;BME280;61348;53.392;-6.248;2022-08-21T01:06:52;100710.25;;;14.68;66.64
43707;BME280;61348;53.392;-6.248;2022-08-21T01:09:21;100703.88;;;14.68;66.47
43707;BME280;61348;53.392;-6.248;2022-08-21T01:11:48;100699.00;;;14.61;66.60
43707;BME280;61348;53.392;-6.248;2022-08-21T01:14:16;100709.28;;;14.57;66.65
43707;BME280;61348;53.392;-6.248;2022-08-21T01:16:48;100711.63;;;14.55;66.77
43707;BME280;61348;53.392;-6.248;2022-08-21T01:19:18;100711.94;;;14.50;66.79
43707;BME280;61348;53.392;-6.248;2022-08-21T01:21:47;100713.84;;;14.46;66.69
43707;BME280;61348;53.392;-6.248;2022-08-21T01:24:14;100714.16;;;14.41;66.81
43707;BME280;61348;53.392;-6.248;2022-08-21T01:26:42;100714.47;;;14.36;66.92
43707;BME280;61348;53.392;-6.248;2022-08-21T01:29:41;100713.91;;;14.27;67.16
43707;BME280;61348;53.392;-6.248;2022-08-21T01:32:10;100716.13;;;14.18;67.32
43707;BME280;61348;53.392;-6.248;2022-08-21T01:34:41;100721.25;;;14.16;67.31
43707;BME280;61348;53.392;-6.248;2022-08-21T01:37:10;100718.31;;;14.09;67.54
43707;BME280;61348;53.392;-6.248;2022-08-21T01:39:37;100727.44;;;14.06;67.53
43707;BME280;61348;53.392;-6.248;2022-08-21T01:42:04;100727.44;;;14.06;67.44
43707;BME280;61348;53.392;-6.248;2022-08-21T01:44:33;100726.97;;;14.03;67.59
43707;BME280;61348;53.392;-6.248;2022-08-21T01:47:03;100729.63;;;13.96;67.69
43707;BME280;61348;53.392;-6.248;2022-08-21T01:49:31;100730.44;;;13.97;67.68
43707;BME280;61348;53.392;-6.248;2022-08-21T01:51:58;100729.56;;;13.93;67.68
43707;BME280;61348;53.392;-6.248;2022-08-21T01:54:25;100730.66;;;13.88;67.85
43707;BME280;61348;53.392;-6.248;2022-08-21T01:56:53;100731.81;;;13.87;67.63
43707;BME280;61348;53.392;-6.248;2022-08-21T01:59:23;100720.69;;;13.87;67.77
43707;BME280;61348;53.392;-6.248;2022-08-21T02:01:53;100722.25;;;13.85;67.91
43707;BME280;61348;53.392;-6.248;2022-08-21T02:04:21;100717.34;;;13.78;67.85
43707;BME280;61348;53.392;-6.248;2022-08-21T02:06:49;100721.59;;;13.72;68.15
43707;BME280;61348;53.392;-6.248;2022-08-21T02:09:17;100722.78;;;13.71;68.26
43707;BME280;61348;53.392;-6.248;2022-08-21T02:11:45;100727.06;;;13.69;68.28
43707;BME280;61348;53.392;-6.248;2022-08-21T02:14:14;100718.69;;;13.65;68.23
43707;BME280;61348;53.392;-6.248;2022-08-21T02:16:59;100719.41;;;13.62;68.26
43707;BME280;61348;53.392;-6.248;2022-08-21T02:19:34;100716.19;;;13.60;68.45
43707;BME280;61348;53.392;-6.248;2022-08-21T02:22:07;100718.50;;;13.58;68.30
43707;BME280;61348;53.392;-6.248;2022-08-21T02:24:34;100720.50;;;13.58;68.27
43707;BME280;61348;53.392;-6.248;2022-08-21T02:27:04;100724.03;;;13.55;68.28
43707;BME280;61348;53.392;-6.248;2022-08-21T02:29:30;100727.91;;;13.50;68.28
43707;BME280;61348;53.392;-6.248;2022-08-21T02:31:57;100720.59;;;13.42;68.75
43707;BME280;61348;53.392;-6.248;2022-08-21T02:34:25;100721.38;;;13.42;68.76
43707;BME280;61348;53.392;-6.248;2022-08-21T02:36:54;100720.50;;;13.38;68.76
43707;BME280;61348;53.392;-6.248;2022-08-21T02:39:25;100722.31;;;13.31;69.04
43707;BME280;61348;53.392;-6.248;2022-08-21T02:41:53;100727.44;;;13.29;69.24
43707;BME280;61348;53.392;-6.248;2022-08-21T02:44:20;100723.34;;;13.23;69.36
43707;BME280;61348;53.392;-6.248;2022-08-21T02:47:01;100717.69;;;13.19;69.46
43707;BME280;61348;53.392;-6.248;2022-08-21T02:49:28;100712.94;;;13.20;69.38
43707;BME280;61348;53.392;-6.248;2022-08-21T02:51:54;100716.81;;;13.15;69.39
43707;BME280;61348;53.392;-6.248;2022-08-21T02:54:21;100709.63;;;13.14;69.39
43707;BME280;61348;53.392;-6.248;2022-08-21T02:56:48;100711.97;;;13.12;69.62
43707;BME280;61348;53.392;-6.248;2022-08-21T02:59:15;100711.97;;;13.12;69.66
43707;BME280;61348;53.392;-6.248;2022-08-21T03:01:42;100710.44;;;13.15;69.56
43707;BME280;61348;53.392;-6.248;2022-08-21T03:04:09;100700.47;;;13.14;69.42
43707;BME280;61348;53.392;-6.248;2022-08-21T03:06:36;100703.81;;;13.04;69.64
43707;BME280;61348;53.392;-6.248;2022-08-21T03:09:03;100710.75;;;12.94;69.99
43707;BME280;61348;53.392;-6.248;2022-08-21T03:11:29;100700.25;;;12.88;70.30
43707;BME280;61348;53.392;-6.248;2022-08-21T03:13:56;100700.09;;;12.80;70.53
43707;BME280;61348;53.392;-6.248;2022-08-21T03:16:23;100698.47;;;12.79;70.48
43707;BME280;61348;53.392;-6.248;2022-08-21T03:18:50;100698.56;;;12.83;70.60
43707;BME280;61348;53.392;-6.248;2022-08-21T03:21:17;100699.81;;;12.86;70.39
43707;BME280;61348;53.392;-6.248;2022-08-21T03:23:45;100701.69;;;12.81;70.30
43707;BME280;61348;53.392;-6.248;2022-08-21T03:26:13;100704.13;;;12.83;70.20
43707;BME280;61348;53.392;-6.248;2022-08-21T03:28:42;100707.53;;;12.76;70.35
43707;BME280;61348;53.392;-6.248;2022-08-21T03:31:09;100715.78;;;12.73;70.49
43707;BME280;61348;53.392;-6.248;2022-08-21T03:33:36;100713.72;;;12.70;70.72
43707;BME280;61348;53.392;-6.248;2022-08-21T03:36:05;100713.63;;;12.66;70.67
43707;BME280;61348;53.392;-6.248;2022-08-21T03:38:33;100710.75;;;12.63;70.79
43707;BME280;61348;53.392;-6.248;2022-08-21T03:41:01;100705.94;;;12.60;70.83
43707;BME280;61348;53.392;-6.248;2022-08-21T03:43:28;100705.94;;;12.60;70.86
43707;BME280;61348;53.392;-6.248;2022-08-21T03:45:59;100702.81;;;12.61;70.80
43707;BME280;61348;53.392;-6.248;2022-08-21T03:48:26;100705.94;;;12.60;70.77
43707;BME280;61348;53.392;-6.248;2022-08-21T03:50:54;100705.41;;;12.54;70.97
43707;BME280;61348;53.392;-6.248;2022-08-21T03:53:21;100702.63;;;12.54;70.83
43707;BME280;61348;53.392;-6.248;2022-08-21T03:55:50;100711.69;;;12.51;70.78
43707;BME280;61348;53.392;-6.248;2022-08-21T03:58:22;100723.06;;;12.46;70.99
43707;BME280;61348;53.392;-6.248;2022-08-21T04:00:51;100710.72;;;12.44;71.17
43707;BME280;61348;53.392;-6.248;2022-08-21T04:03:19;100707.81;;;12.40;71.30
43707;BME280;61348;53.392;-6.248;2022-08-21T04:05:46;100707.28;;;12.35;71.42
43707;BME280;61348;53.392;-6.248;2022-08-21T04:08:14;100712.50;;;12.36;71.41
43707;BME280;61348;53.392;-6.248;2022-08-21T04:10:45;100699.34;;;12.33;71.57
43707;BME280;61348;53.392;-6.248;2022-08-21T04:13:13;100705.31;;;12.35;71.50
43707;BME280;61348;53.392;-6.248;2022-08-21T04:15:41;100711.25;;;12.34;71.56
43707;BME280;61348;53.392;-6.248;2022-08-21T04:18:09;100717.25;;;12.36;71.29
43707;BME280;61348;53.392;-6.248;2022-08-21T04:20:36;100720.34;;;12.34;71.33
43707;BME280;61348;53.392;-6.248;2022-08-21T04:23:03;100719.47;;;12.30;71.46
43707;BME280;61348;53.392;-6.248;2022-08-21T04:25:31;100717.78;;;12.26;71.68
43707;BME280;61348;53.392;-6.248;2022-08-21T04:27:58;100723.66;;;12.24;71.68
43707;BME280;61348;53.392;-6.248;2022-08-21T04:30:25;100726.72;;;12.19;71.75
43707;BME280;61348;53.392;-6.248;2022-08-21T04:32:56;100722.69;;;12.16;71.77
43707;BME280;61348;53.392;-6.248;2022-08-21T04:35:26;100723.50;;;12.17;71.74
43707;BME280;61348;53.392;-6.248;2022-08-21T04:37:53;100732.16;;;12.15;71.89
43707;BME280;61348;53.392;-6.248;2022-08-21T04:40:21;100739.69;;;12.15;71.82
43707;BME280;61348;53.392;-6.248;2022-08-21T04:42:55;100743.63;;;12.14;71.79
43707;BME280;61348;53.392;-6.248;2022-08-21T04:45:34;100749.88;;;12.11;71.93
43707;BME280;61348;53.392;-6.248;2022-08-21T04:48:05;100756.25;;;12.11;71.87
43707;BME280;61348;53.392;-6.248;2022-08-21T04:53:40;100756.59;;;12.10;71.92
43707;BME280;61348;53.392;-6.248;2022-08-21T04:56:11;100754.53;;;12.07;71.80
43707;BME280;61348;53.392;-6.248;2022-08-21T04:58:39;100764.72;;;12.03;71.87
43707;BME280;61348;53.392;-6.248;2022-08-21T05:01:13;100759.53;;;12.01;72.15
43707;BME280;61348;53.392;-6.248;2022-08-21T05:03:42;100752.38;;;12.00;72.15
43707;BME280;61348;53.392;-6.248;2022-08-21T05:06:11;100762.09;;;11.94;72.34
43707;BME280;61348;53.392;-6.248;2022-08-21T05:08:41;100763.63;;;11.92;72.54
43707;BME280;61348;53.392;-6.248;2022-08-21T05:11:11;100765.94;;;11.90;72.54
43707;BME280;61348;53.392;-6.248;2022-08-21T05:13:38;100767.91;;;11.89;72.67
43707;BME280;61348;53.392;-6.248;2022-08-21T05:16:06;100763.97;;;11.90;72.67
43707;BME280;61348;53.392;-6.248;2022-08-21T05:18:33;100770.09;;;11.96;72.57
43707;BME280;61348;53.392;-6.248;2022-08-21T05:21:00;100767.75;;;11.98;72.58
43707;BME280;61348;53.392;-6.248;2022-08-21T05:23:27;100768.56;;;11.98;72.57
43707;BME280;61348;53.392;-6.248;2022-08-21T05:25:54;100766.13;;;11.97;72.46
43707;BME280;61348;53.392;-6.248;2022-08-21T05:28:22;100766.94;;;11.97;72.46
43707;BME280;61348;53.392;-6.248;2022-08-21T05:30:52;100773.31;;;11.98;72.66
43707;BME280;61348;53.392;-6.248;2022-08-21T05:33:19;100778.84;;;11.98;72.66
43707;BME280;61348;53.392;-6.248;2022-08-21T05:35:52;100780.13;;;12.00;72.56
43707;BME280;61348;53.392;-6.248;2022-08-21T05:38:23;100777.44;;;12.04;72.50
43707;BME280;61348;53.392;-6.248;2022-08-21T05:40:50;100776.28;;;12.05;72.46
43707;BME280;61348;53.392;-6.248;2022-08-21T05:43:17;100781.38;;;12.03;72.75
43707;BME280;61348;53.392;-6.248;2022-08-21T05:45:44;100781.03;;;12.04;72.74
43707;BME280;61348;53.392;-6.248;2022-08-21T05:48:17;100779.16;;;12.08;72.70
43707;BME280;61348;53.392;-6.248;2022-08-21T05:50:49;100775.31;;;12.13;72.44
43707;BME280;61348;53.392;-6.248;2022-08-21T05:53:19;100775.31;;;12.13;72.62
43707;BME280;61348;53.392;-6.248;2022-08-21T05:55:46;100774.53;;;12.12;72.83
43707;BME280;61348;53.392;-6.248;2022-08-21T05:58:16;100778.44;;;12.11;72.97
43707;BME280;61348;53.392;-6.248;2022-08-21T06:00:44;100778.56;;;12.15;72.98
43707;BME280;61348;53.392;-6.248;2022-08-21T06:03:40;100777.13;;;12.21;72.98
43707;BME280;61348;53.392;-6.248;2022-08-21T06:06:07;100786.81;;;12.27;72.92
43707;BME280;61348;53.392;-6.248;2022-08-21T06:08:34;100790.25;;;12.36;72.67
43707;BME280;61348;53.392;-6.248;2022-08-21T06:11:02;100789.59;;;12.43;72.56
43707;BME280;61348;53.392;-6.248;2022-08-21T06:13:29;100783.78;;;12.48;72.50
43707;BME280;61348;53.392;-6.248;2022-08-21T06:16:11;100781.81;;;12.48;72.54
43707;BME280;61348;53.392;-6.248;2022-08-21T06:18:42;100792.22;;;12.51;72.31
43707;BME280;61348;53.392;-6.248;2022-08-21T06:21:09;100785.84;;;12.51;72.56
43707;BME280;61348;53.392;-6.248;2022-08-21T06:23:37;100787.38;;;12.48;72.54
43707;BME280;61348;53.392;-6.248;2022-08-21T06:26:05;100797.06;;;12.54;72.43
43707;BME280;61348;53.392;-6.248;2022-08-21T06:28:34;100794.47;;;12.61;72.24
43707;BME280;61348;53.392;-6.248;2022-08-21T06:31:10;100805.41;;;12.70;72.13
43707;BME280;61348;53.392;-6.248;2022-08-21T06:33:37;100801.53;;;12.74;71.90
43707;BME280;61348;53.392;-6.248;2022-08-21T06:36:03;100808.00;;;12.78;71.91
43707;BME280;61348;53.392;-6.248;2022-08-21T06:38:30;100810.50;;;12.83;71.95
43707;BME280;61348;53.392;-6.248;2022-08-21T06:40:58;100815.38;;;12.87;71.92
43707;BME280;61348;53.392;-6.248;2022-08-21T06:43:27;100816.25;;;12.91;71.63
43707;BME280;61348;53.392;-6.248;2022-08-21T06:46:05;100823.44;;;12.92;71.66
43707;BME280;61348;53.392;-6.248;2022-08-21T06:48:32;100824.75;;;12.98;71.66
43707;BME280;61348;53.392;-6.248;2022-08-21T06:51:00;100826.81;;;13.01;71.67
43707;BME280;61348;53.392;-6.248;2022-08-21T06:53:27;100834.81;;;13.02;71.38
43707;BME280;61348;53.392;-6.248;2022-08-21T06:55:54;100842.66;;;13.00;71.38
43707;BME280;61348;53.392;-6.248;2022-08-21T06:58:21;100843.47;;;13.01;71.47
43707;BME280;61348;53.392;-6.248;2022-08-21T07:00:49;100838.75;;;13.01;71.65
43707;BME280;61348;53.392;-6.248;2022-08-21T07:05:50;100835.16;;;13.01;71.46
43707;BME280;61348;53.392;-6.248;2022-08-21T07:08:17;100844.41;;;13.05;71.47
43707;BME280;61348;53.392;-6.248;2022-08-21T07:10:44;100831.41;;;13.09;71.58
43707;BME280;61348;53.392;-6.248;2022-08-21T07:13:11;100842.19;;;13.10;71.34
43707;BME280;61348;53.392;-6.248;2022-08-21T07:15:38;100835.97;;;13.17;71.42
43707;BME280;61348;53.392;-6.248;2022-08-21T07:18:05;100836.94;;;13.24;71.24
43707;BME280;61348;53.392;-6.248;2022-08-21T07:20:33;100839.38;;;13.26;71.29
43707;BME280;61348;53.392;-6.248;2022-08-21T07:23:06;100837.03;;;13.28;71.23
43707;BME280;61348;53.392;-6.248;2022-08-21T07:25:33;100847.44;;;13.31;71.34
43707;BME280;61348;53.392;-6.248;2022-08-21T07:28:01;100843.03;;;13.30;71.09
43707;BME280;61348;53.392;-6.248;2022-08-21T07:30:28;100841.16;;;13.34;71.26
43707;BME280;61348;53.392;-6.248;2022-08-21T07:32:55;100835.75;;;13.41;71.21
43707;BME280;61348;53.392;-6.248;2022-08-21T07:35:24;100843.81;;;13.46;71.10
43707;BME280;61348;53.392;-6.248;2022-08-21T07:37:50;100857.44;;;13.51;70.82
43707;BME280;61348;53.392;-6.248;2022-08-21T07:40:18;100848.81;;;13.56;70.77
43707;BME280;61348;53.392;-6.248;2022-08-21T07:42:48;100857.59;;;13.58;70.74
43707;BME280;61348;53.392;-6.248;2022-08-21T07:45:20;100855.44;;;13.67;70.63
43707;BME280;61348;53.392;-6.248;2022-08-21T07:47:48;100877.94;;;13.78;70.47
43707;BME280;61348;53.392;-6.248;2022-08-21T07:50:20;100874.22;;;13.89;70.63
43707;BME280;61348;53.392;-6.248;2022-08-21T07:52:47;100875.47;;;13.92;70.49
43707;BME280;61348;53.392;-6.248;2022-08-21T07:55:19;100873.94;;;13.94;70.50
43707;BME280;61348;53.392;-6.248;2022-08-21T07:57:47;100874.38;;;13.96;70.53
43707;BME280;61348;53.392;-6.248;2022-08-21T08:00:18;100875.72;;;14.02;70.62
43707;BME280;61348;53.392;-6.248;2022-08-21T08:02:47;100875.84;;;14.10;70.67
43707;BME280;61348;53.392;-6.248;2022-08-21T08:05:18;100877.31;;;14.23;71.03
43707;BME280;61348;53.392;-6.248;2022-08-21T08:07:45;100871.19;;;14.33;71.20
43707;BME280;61348;53.392;-6.248;2022-08-21T08:10:13;100871.78;;;14.42;71.43
43707;BME280;61348;53.392;-6.248;2022-08-21T08:12:41;100867.66;;;14.55;71.79
43707;BME280;61348;53.392;-6.248;2022-08-21T08:15:12;100867.56;;;14.71;71.78
43707;BME280;61348;53.392;-6.248;2022-08-21T08:17:39;100872.28;;;14.89;72.15
43707;BME280;61348;53.392;-6.248;2022-08-21T08:20:08;100866.31;;;15.13;72.35
43707;BME280;61348;53.392;-6.248;2022-08-21T08:22:36;100870.78;;;15.44;72.27
43707;BME280;61348;53.392;-6.248;2022-08-21T08:25:04;100872.06;;;15.73;71.71
43707;BME280;61348;53.392;-6.248;2022-08-21T08:27:35;100871.25;;;16.02;71.37
43707;BME280;61348;53.392;-6.248;2022-08-21T08:30:03;100869.00;;;16.44;71.16
43707;BME280;61348;53.392;-6.248;2022-08-21T08:32:30;100866.00;;;16.97;69.62
43707;BME280;61348;53.392;-6.248;2022-08-21T08:34:57;100869.97;;;17.43;67.64
43707;BME280;61348;53.392;-6.248;2022-08-21T08:37:25;100868.91;;;18.31;65.67
43707;BME280;61348;53.392;-6.248;2022-08-21T08:40:00;100875.19;;;19.42;62.68
43707;BME280;61348;53.392;-6.248;2022-08-21T08:42:34;100868.91;;;20.46;59.43
43707;BME280;61348;53.392;-6.248;2022-08-21T08:45:11;100861.22;;;21.19;56.19
43707;BME280;61348;53.392;-6.248;2022-08-21T08:47:55;100870.59;;;21.94;53.83
43707;BME280;61348;53.392;-6.248;2022-08-21T08:57:49;100863.59;;;23.70;47.56
43707;BME280;61348;53.392;-6.248;2022-08-21T09:00:49;100873.53;;;24.01;45.35
43707;BME280;61348;53.392;-6.248;2022-08-21T09:03:16;100875.09;;;24.25;44.33
43707;BME280;61348;53.392;-6.248;2022-08-21T09:13:11;100876.50;;;25.24;40.57
43707;BME280;61348;53.392;-6.248;2022-08-21T09:27:12;100868.13;;;26.93;37.07
43707;BME280;61348;53.392;-6.248;2022-08-21T09:29:49;100862.00;;;26.82;35.67
43707;BME280;61348;53.392;-6.248;2022-08-21T09:32:24;100868.03;;;26.84;35.42
43707;BME280;61348;53.392;-6.248;2022-08-21T09:35:10;100857.47;;;26.97;34.80
43707;BME280;61348;53.392;-6.248;2022-08-21T09:41:03;100858.25;;;26.85;34.85
43707;BME280;61348;53.392;-6.248;2022-08-21T09:48:29;100856.66;;;27.09;34.60
43707;BME280;61348;53.392;-6.248;2022-08-21T09:51:22;100853.72;;;27.00;34.16
43707;BME280;61348;53.392;-6.248;2022-08-21T10:02:23;100850.63;;;27.20;34.24
43707;BME280;61348;53.392;-6.248;2022-08-21T10:09:07;100859.75;;;25.78;34.42
43707;BME280;61348;53.392;-6.248;2022-08-21T10:22:06;100854.72;;;27.32;33.09
43707;BME280;61348;53.392;-6.248;2022-08-21T10:25:05;100846.22;;;27.66;33.11
43707;BME280;61348;53.392;-6.248;2022-08-21T10:37:36;100841.88;;;27.74;32.44
43707;BME280;61348;53.392;-6.248;2022-08-21T10:46:45;100847.69;;;27.11;32.07
43707;BME280;61348;53.392;-6.248;2022-08-21T10:54:05;100848.75;;;26.50;33.12
43707;BME280;61348;53.392;-6.248;2022-08-21T10:56:26;100850.41;;;26.23;33.46
43707;BME280;61348;53.392;-6.248;2022-08-21T11:03:08;100845.84;;;24.87;34.45
43707;BME280;61348;53.392;-6.248;2022-08-21T11:05:47;100850.56;;;24.38;35.17
43707;BME280;61348;53.392;-6.248;2022-08-21T11:16:00;100847.44;;;23.24;37.06
43707;BME280;61348;53.392;-6.248;2022-08-21T11:21:12;100847.81;;;22.76;37.77
43707;BME280;61348;53.392;-6.248;2022-08-21T11:24:02;100836.31;;;22.63;37.93
43707;BME280;61348;53.392;-6.248;2022-08-21T11:29:33;100836.97;;;22.10;38.32
43707;BME280;61348;53.392;-6.248;2022-08-21T11:32:08;100838.34;;;21.95;39.04
43707;BME280;61348;53.392;-6.248;2022-08-21T11:41:46;100838.53;;;21.37;39.74
43707;BME280;61348;53.392;-6.248;2022-08-21T11:48:03;100837.00;;;21.29;40.34
43707;BME280;61348;53.392;-6.248;2022-08-21T11:50:15;100830.44;;;21.42;40.70
43707;BME280;61348;53.392;-6.248;2022-08-21T11:53:31;100834.81;;;21.47;40.71
43707;BME280;61348;53.392;-6.248;2022-08-21T11:56:43;100840.50;;;21.40;40.81
43707;BME280;61348;53.392;-6.248;2022-08-21T11:59:19;100835.28;;;21.42;40.48
43707;BME280;61348;53.392;-6.248;2022-08-21T12:01:48;100838.50;;;21.40;40.53
43707;BME280;61348;53.392;-6.248;2022-08-21T12:08:32;100832.38;;;21.49;40.61
43707;BME280;61348;53.392;-6.248;2022-08-21T12:17:39;100830.09;;;21.74;39.66
43707;BME280;61348;53.392;-6.248;2022-08-21T12:26:54;100828.94;;;22.09;38.56
43707;BME280;61348;53.392;-6.248;2022-08-21T12:29:30;100827.34;;;22.08;38.47
43707;BME280;61348;53.392;-6.248;2022-08-21T12:32:04;100828.56;;;22.07;38.48
43707;BME280;61348;53.392;-6.248;2022-08-21T12:37:40;100831.13;;;22.24;37.87
43707;BME280;61348;53.392;-6.248;2022-08-21T12:42:47;100825.97;;;22.50;37.69
43707;BME280;61348;53.392;-6.248;2022-08-21T12:48:07;100845.63;;;22.87;37.07
43707;BME280;61348;53.392;-6.248;2022-08-21T13:04:41;100855.06;;;22.77;40.97
43707;BME280;61348;53.392;-6.248;2022-08-21T13:07:11;100849.22;;;22.61;40.66
43707;BME280;61348;53.392;-6.248;2022-08-21T13:21:14;100837.25;;;21.82;42.30
43707;BME280;61348;53.392;-6.248;2022-08-21T13:23:41;100838.75;;;21.97;42.09
43707;BME280;61348;53.392;-6.248;2022-08-21T13:33:10;100837.56;;;22.28;41.34
43707;BME280;61348;53.392;-6.248;2022-08-21T13:38:28;100832.47;;;22.47;40.66
43707;BME280;61348;53.392;-6.248;2022-08-21T13:50:55;100827.44;;;22.88;40.62
43707;BME280;61348;53.392;-6.248;2022-08-21T13:57:04;100816.41;;;22.97;40.35
43707;BME280;61348;53.392;-6.248;2022-08-21T14:03:43;100825.59;;;22.78;40.19
43707;BME280;61348;53.392;-6.248;2022-08-21T14:11:12;100820.00;;;22.44;40.73
43707;BME280;61348;53.392;-6.248;2022-08-21T14:14:27;100820.25;;;22.53;41.08
43707;BME280;61348;53.392;-6.248;2022-08-21T14:17:29;100813.72;;;22.60;40.71
43707;BME280;61348;53.392;-6.248;2022-08-21T14:20:30;100810.53;;;22.58;40.67
43707;BME280;61348;53.392;-6.248;2022-08-21T14:27:30;100797.03;;;22.15;41.26
43707;BME280;61348;53.392;-6.248;2022-08-21T14:30:22;100813.63;;;22.10;41.13
43707;BME280;61348;53.392;-6.248;2022-08-21T14:33:26;100803.16;;;22.10;40.88
43707;BME280;61348;53.392;-6.248;2022-08-21T14:36:14;100811.34;;;21.98;41.16
43707;BME280;61348;53.392;-6.248;2022-08-21T14:39:02;100808.56;;;21.94;41.20
43707;BME280;61348;53.392;-6.248;2022-08-21T14:49:33;100806.81;;;21.70;42.16
43707;BME280;61348;53.392;-6.248;2022-08-21T14:52:00;100806.03;;;21.66;41.47
43707;BME280;61348;53.392;-6.248;2022-08-21T14:54:28;100803.44;;;21.45;42.11
43707;BME280;61348;53.392;-6.248;2022-08-21T14:56:59;100797.50;;;21.36;42.18
43707;BME280;61348;53.392;-6.248;2022-08-21T14:59:27;100804.78;;;21.33;42.12
43707;BME280;61348;53.392;-6.248;2022-08-21T15:01:54;100803.25;;;21.25;42.17
43707;BME280;61348;53.392;-6.248;2022-08-21T15:04:22;100794.44;;;21.19;42.38
43707;BME280;61348;53.392;-6.248;2022-08-21T15:06:49;100805.34;;;21.14;43.12
43707;BME280;61348;53.392;-6.248;2022-08-21T15:09:17;100807.31;;;21.20;42.97
43707;BME280;61348;53.392;-6.248;2022-08-21T15:11:44;100807.25;;;21.28;42.84
43707;BME280;61348;53.392;-6.248;2022-08-21T15:17:51;100812.69;;;21.45;42.65
43707;BME280;61348;53.392;-6.248;2022-08-21T15:20:46;100805.97;;;21.73;41.89
43707;BME280;61348;53.392;-6.248;2022-08-21T15:23:33;100803.88;;;22.14;41.80
43707;BME280;61348;53.392;-6.248;2022-08-21T15:40:50;100811.44;;;23.04;39.69
43707;BME280;61348;53.392;-6.248;2022-08-21T15:51:08;100813.16;;;22.98;38.88
43707;BME280;61348;53.392;-6.248;2022-08-21T15:53:35;100811.75;;;23.10;38.62
43707;BME280;61348;53.392;-6.248;2022-08-21T16:03:49;100794.31;;;23.15;38.49
43707;BME280;61348;53.392;-6.248;2022-08-21T16:06:16;100795.34;;;23.01;38.97
43707;BME280;61348;53.392;-6.248;2022-08-21T16:09:05;100790.97;;;23.00;38.78
43707;BME280;61348;53.392;-6.248;2022-08-21T16:11:32;100788.91;;;23.01;39.21
43707;BME280;61348;53.392;-6.248;2022-08-21T16:13:59;100789.66;;;23.05;39.00
43707;BME280;61348;53.392;-6.248;2022-08-21T16:16:27;100780.25;;;23.12;38.83
43707;BME280;61348;53.392;-6.248;2022-08-21T16:18:57;100783.63;;;23.26;38.69
43707;BME280;61348;53.392;-6.248;2022-08-21T16:25:05;100784.63;;;23.16;39.48
43707;BME280;61348;53.392;-6.248;2022-08-21T16:27:34;100790.00;;;23.30;38.96
43707;BME280;61348;53.392;-6.248;2022-08-21T16:30:05;100786.66;;;23.39;38.97
43707;BME280;61348;53.392;-6.248;2022-08-21T16:32:32;100779.28;;;23.45;38.69
43707;BME280;61348;53.392;-6.248;2022-08-21T16:35:01;100783.84;;;23.39;38.42
43707;BME280;61348;53.392;-6.248;2022-08-21T16:37:29;100777.31;;;23.42;38.91
43707;BME280;61348;53.392;-6.248;2022-08-21T16:39:56;100776.88;;;23.43;39.04
43707;BME280;61348;53.392;-6.248;2022-08-21T16:46:22;100766.06;;;23.15;39.60
43707;BME280;61348;53.392;-6.248;2022-08-21T16:49:10;100769.72;;;23.35;39.54
43707;BME280;61348;53.392;-6.248;2022-08-21T16:51:57;100764.44;;;23.60;39.58
43707;BME280;61348;53.392;-6.248;2022-08-21T16:54:44;100763.16;;;23.85;38.92
43707;BME280;61348;53.392;-6.248;2022-08-21T16:57:31;100754.59;;;23.69;39.04
43707;BME280;61348;53.392;-6.248;2022-08-21T17:00:19;100764.81;;;23.62;39.41
43707;BME280;61348;53.392;-6.248;2022-08-21T17:03:12;100770.16;;;23.57;39.38
43707;BME280;61348;53.392;-6.248;2022-08-21T17:06:00;100776.63;;;23.57;39.60
43707;BME280;61348;53.392;-6.248;2022-08-21T17:08:48;100778.78;;;23.27;39.92
43707;BME280;61348;53.392;-6.248;2022-08-21T17:21:08;100773.22;;;22.16;42.70
43707;BME280;61348;53.392;-6.248;2022-08-21T17:27:30;100767.72;;;22.66;42.43